sensor_id;sensor_type;location;lat;lon;timestamp;pressure;altitude;pressure_sealevel;temperature
76895;BMP280;65855;42.030;13.078;2023-04-24T00:01:47;93392.94;;;10.36
76895;BMP280;65855;42.030;13.078;2023-04-24T00:07:34;93381.28;;;9.64
76895;BMP280;65855;42.030;13.078;2023-04-24T00:10:00;93381.84;;;9.61
76895;BMP280;65855;42.030;13.078;2023-04-24T00:12:26;93383.38;;;9.26
76895;BMP280;65855;42.030;13.078;2023-04-24T00:14:52;93382.09;;;9.28
76895;BMP280;65855;42.030;13.078;2023-04-24T00:17:17;93375.25;;;9.15
76895;BMP280;65855;42.030;13.078;2023-04-24T00:19:47;93362.81;;;9.06
76895;BMP280;65855;42.030;13.078;2023-04-24T00:22:12;93373.00;;;8.96
76895;BMP280;65855;42.030;13.078;2023-04-24T00:24:39;93362.31;;;8.67
76895;BMP280;65855;42.030;13.078;2023-04-24T00:27:04;93348.25;;;9.39
76895;BMP280;65855;42.030;13.078;2023-04-24T00:29:30;93338.31;;;9.29
76895;BMP280;65855;42.030;13.078;2023-04-24T00:31:55;93343.34;;;9.29
76895;BMP280;65855;42.030;13.078;2023-04-24T00:34:21;93331.50;;;8.98
76895;BMP280;65855;42.030;13.078;2023-04-24T00:36:46;93327.00;;;9.13
76895;BMP280;65855;42.030;13.078;2023-04-24T00:39:14;93335.91;;;9.06
76895;BMP280;65855;42.030;13.078;2023-04-24T00:41:39;93347.66;;;8.92
76895;BMP280;65855;42.030;13.078;2023-04-24T00:44:05;93333.13;;;8.89
76895;BMP280;65855;42.030;13.078;2023-04-24T00:46:31;93336.00;;;8.83
76895;BMP280;65855;42.030;13.078;2023-04-24T00:48:56;93334.50;;;8.82
76895;BMP280;65855;42.030;13.078;2023-04-24T00:51:24;93314.09;;;8.84
76895;BMP280;65855;42.030;13.078;2023-04-24T00:53:49;93321.81;;;9.23
76895;BMP280;65855;42.030;13.078;2023-04-24T00:56:16;93323.34;;;8.88
76895;BMP280;65855;42.030;13.078;2023-04-24T00:58:42;93319.94;;;8.79
76895;BMP280;65855;42.030;13.078;2023-04-24T01:01:09;93333.47;;;8.24
76895;BMP280;65855;42.030;13.078;2023-04-24T01:03:35;93332.00;;;8.41
76895;BMP280;65855;42.030;13.078;2023-04-24T01:06:02;93325.19;;;8.23
76895;BMP280;65855;42.030;13.078;2023-04-24T01:08:28;93321.72;;;8.19
76895;BMP280;65855;42.030;13.078;2023-04-24T01:10:53;93312.50;;;7.87
76895;BMP280;65855;42.030;13.078;2023-04-24T01:13:20;93301.41;;;7.93
76895;BMP280;65855;42.030;13.078;2023-04-24T01:15:46;93311.44;;;8.16
76895;BMP280;65855;42.030;13.078;2023-04-24T01:18:12;93307.13;;;7.75
76895;BMP280;65855;42.030;13.078;2023-04-24T01:20:42;93303.09;;;8.43
76895;BMP280;65855;42.030;13.078;2023-04-24T01:23:09;93302.41;;;8.38
76895;BMP280;65855;42.030;13.078;2023-04-24T01:25:36;93306.50;;;8.11
76895;BMP280;65855;42.030;13.078;2023-04-24T01:28:01;93304.63;;;7.98
76895;BMP280;65855;42.030;13.078;2023-04-24T01:30:27;93306.13;;;7.99
76895;BMP280;65855;42.030;13.078;2023-04-24T01:32:53;93312.09;;;7.24
76895;BMP280;65855;42.030;13.078;2023-04-24T01:35:19;93313.88;;;7.19
76895;BMP280;65855;42.030;13.078;2023-04-24T01:37:45;93307.69;;;7.67
76895;BMP280;65855;42.030;13.078;2023-04-24T01:40:11;93312.16;;;7.70
76895;BMP280;65855;42.030;13.078;2023-04-24T01:42:36;93310.22;;;7.07
76895;BMP280;65855;42.030;13.078;2023-04-24T01:45:03;93309.97;;;7.41
76895;BMP280;65855;42.030;13.078;2023-04-24T01:47:30;93300.69;;;7.65
76895;BMP280;65855;42.030;13.078;2023-04-24T01:49:56;93300.50;;;7.33
76895;BMP280;65855;42.030;13.078;2023-04-24T01:52:21;93292.03;;;7.24
76895;BMP280;65855;42.030;13.078;2023-04-24T01:54:47;93284.75;;;7.28
76895;BMP280;65855;42.030;13.078;2023-04-24T01:57:14;93291.56;;;7.22
76895;BMP280;65855;42.030;13.078;2023-04-24T01:59:39;93277.84;;;7.43
76895;BMP280;65855;42.030;13.078;2023-04-24T02:02:05;93279.84;;;7.46
76895;BMP280;65855;42.030;13.078;2023-04-24T02:04:31;93275.28;;;6.87
76895;BMP280;65855;42.030;13.078;2023-04-24T02:06:56;93268.69;;;7.01
76895;BMP280;65855;42.030;13.078;2023-04-24T02:09:22;93261.88;;;6.73
76895;BMP280;65855;42.030;13.078;2023-04-24T02:11:47;93269.81;;;6.47
76895;BMP280;65855;42.030;13.078;2023-04-24T02:14:13;93251.44;;;6.62
76895;BMP280;65855;42.030;13.078;2023-04-24T02:16:38;93258.78;;;6.86
76895;BMP280;65855;42.030;13.078;2023-04-24T02:19:03;93247.53;;;6.84
76895;BMP280;65855;42.030;13.078;2023-04-24T02:21:29;93253.38;;;7.02
76895;BMP280;65855;42.030;13.078;2023-04-24T02:23:56;93249.84;;;6.75
76895;BMP280;65855;42.030;13.078;2023-04-24T02:26:22;93250.91;;;6.65
76895;BMP280;65855;42.030;13.078;2023-04-24T02:28:47;93242.44;;;6.56
76895;BMP280;65855;42.030;13.078;2023-04-24T02:31:13;93242.88;;;7.00
76895;BMP280;65855;42.030;13.078;2023-04-24T02:33:39;93238.00;;;6.48
76895;BMP280;65855;42.030;13.078;2023-04-24T02:36:04;93231.91;;;6.92
76895;BMP280;65855;42.030;13.078;2023-04-24T02:38:30;93217.34;;;6.66
76895;BMP280;65855;42.030;13.078;2023-04-24T02:40:55;93217.44;;;6.89
76895;BMP280;65855;42.030;13.078;2023-04-24T02:43:21;93201.38;;;7.64
76895;BMP280;65855;42.030;13.078;2023-04-24T02:45:46;93194.19;;;9.15
76895;BMP280;65855;42.030;13.078;2023-04-24T02:48:12;93182.38;;;10.65
76895;BMP280;65855;42.030;13.078;2023-04-24T02:50:38;93175.56;;;10.87
76895;BMP280;65855;42.030;13.078;2023-04-24T02:53:03;93166.13;;;11.30
76895;BMP280;65855;42.030;13.078;2023-04-24T02:55:29;93170.72;;;11.20
76895;BMP280;65855;42.030;13.078;2023-04-24T02:57:54;93176.47;;;11.51
76895;BMP280;65855;42.030;13.078;2023-04-24T03:00:20;93182.84;;;11.18
76895;BMP280;65855;42.030;13.078;2023-04-24T03:02:45;93164.38;;;11.69
76895;BMP280;65855;42.030;13.078;2023-04-24T03:05:11;93184.44;;;11.36
76895;BMP280;65855;42.030;13.078;2023-04-24T03:07:37;93179.41;;;11.74
76895;BMP280;65855;42.030;13.078;2023-04-24T03:10:04;93184.09;;;11.59
76895;BMP280;65855;42.030;13.078;2023-04-24T03:12:30;93192.81;;;11.45
76895;BMP280;65855;42.030;13.078;2023-04-24T03:14:56;93192.59;;;11.11
76895;BMP280;65855;42.030;13.078;2023-04-24T03:17:21;93195.09;;;11.33
76895;BMP280;65855;42.030;13.078;2023-04-24T03:19:47;93189.38;;;11.41
76895;BMP280;65855;42.030;13.078;2023-04-24T03:22:12;93186.84;;;11.41
76895;BMP280;65855;42.030;13.078;2023-04-24T03:24:38;93183.50;;;11.02
76895;BMP280;65855;42.030;13.078;2023-04-24T03:27:03;93180.50;;;10.49
76895;BMP280;65855;42.030;13.078;2023-04-24T03:29:29;93167.84;;;10.06
76895;BMP280;65855;42.030;13.078;2023-04-24T03:31:54;93158.91;;;9.07
76895;BMP280;65855;42.030;13.078;2023-04-24T03:34:19;93166.63;;;9.11
76895;BMP280;65855;42.030;13.078;2023-04-24T03:36:45;93185.00;;;8.93
76895;BMP280;65855;42.030;13.078;2023-04-24T03:39:13;93186.13;;;8.56
76895;BMP280;65855;42.030;13.078;2023-04-24T03:41:38;93178.69;;;8.33
76895;BMP280;65855;42.030;13.078;2023-04-24T03:44:03;93192.84;;;8.42
76895;BMP280;65855;42.030;13.078;2023-04-24T03:46:29;93197.41;;;8.40
76895;BMP280;65855;42.030;13.078;2023-04-24T03:48:54;93185.59;;;8.22
76895;BMP280;65855;42.030;13.078;2023-04-24T03:51:20;93202.22;;;8.18
76895;BMP280;65855;42.030;13.078;2023-04-24T03:53:46;93205.16;;;8.02
76895;BMP280;65855;42.030;13.078;2023-04-24T03:56:11;93205.25;;;7.97
76895;BMP280;65855;42.030;13.078;2023-04-24T03:58:36;93216.03;;;7.98
76895;BMP280;65855;42.030;13.078;2023-04-24T04:01:02;93222.63;;;7.48
76895;BMP280;65855;42.030;13.078;2023-04-24T04:03:28;93215.81;;;7.53
76895;BMP280;65855;42.030;13.078;2023-04-24T04:05:53;93213.31;;;7.71
76895;BMP280;65855;42.030;13.078;2023-04-24T04:08:19;93221.59;;;7.49
76895;BMP280;65855;42.030;13.078;2023-04-24T04:10:45;93204.31;;;7.70
76895;BMP280;65855;42.030;13.078;2023-04-24T04:13:10;93203.88;;;7.64
76895;BMP280;65855;42.030;13.078;2023-04-24T04:15:36;93196.13;;;7.83
76895;BMP280;65855;42.030;13.078;2023-04-24T04:18:01;93191.13;;;7.60
76895;BMP280;65855;42.030;13.078;2023-04-24T04:20:27;93192.06;;;7.87
76895;BMP280;65855;42.030;13.078;2023-04-24T04:22:52;93183.63;;;8.38
76895;BMP280;65855;42.030;13.078;2023-04-24T04:25:18;93188.34;;;7.85
76895;BMP280;65855;42.030;13.078;2023-04-24T04:27:45;93187.78;;;8.11
76895;BMP280;65855;42.030;13.078;2023-04-24T04:30:13;93176.78;;;8.43
76895;BMP280;65855;42.030;13.078;2023-04-24T04:32:39;93184.84;;;8.40
76895;BMP280;65855;42.030;13.078;2023-04-24T04:35:04;93190.19;;;8.52
76895;BMP280;65855;42.030;13.078;2023-04-24T04:37:31;93178.03;;;8.90
76895;BMP280;65855;42.030;13.078;2023-04-24T04:39:57;93175.25;;;9.05
76895;BMP280;65855;42.030;13.078;2023-04-24T04:42:24;93178.94;;;8.81
76895;BMP280;65855;42.030;13.078;2023-04-24T04:44:50;93175.63;;;8.98
76895;BMP280;65855;42.030;13.078;2023-04-24T04:47:16;93187.00;;;8.96
76895;BMP280;65855;42.030;13.078;2023-04-24T04:49:42;93187.28;;;8.94
76895;BMP280;65855;42.030;13.078;2023-04-24T04:52:08;93188.47;;;8.97
76895;BMP280;65855;42.030;13.078;2023-04-24T04:54:34;93194.47;;;9.01
76895;BMP280;65855;42.030;13.078;2023-04-24T04:56:59;93181.78;;;9.06
76895;BMP280;65855;42.030;13.078;2023-04-24T04:59:26;93175.09;;;9.01
76895;BMP280;65855;42.030;13.078;2023-04-24T05:01:52;93179.44;;;8.96
76895;BMP280;65855;42.030;13.078;2023-04-24T05:04:17;93180.91;;;8.84
76895;BMP280;65855;42.030;13.078;2023-04-24T05:06:43;93174.53;;;9.04
76895;BMP280;65855;42.030;13.078;2023-04-24T05:09:08;93167.25;;;9.03
76895;BMP280;65855;42.030;13.078;2023-04-24T05:11:34;93155.84;;;10.24
76895;BMP280;65855;42.030;13.078;2023-04-24T05:13:59;93147.91;;;10.52
76895;BMP280;65855;42.030;13.078;2023-04-24T05:16:25;93148.19;;;10.51
76895;BMP280;65855;42.030;13.078;2023-04-24T05:18:50;93157.28;;;10.81
76895;BMP280;65855;42.030;13.078;2023-04-24T05:21:16;93154.03;;;10.81
76895;BMP280;65855;42.030;13.078;2023-04-24T05:23:41;93162.25;;;10.73
76895;BMP280;65855;42.030;13.078;2023-04-24T05:26:07;93158.72;;;10.74
76895;BMP280;65855;42.030;13.078;2023-04-24T05:28:32;93159.28;;;10.71
76895;BMP280;65855;42.030;13.078;2023-04-24T05:30:57;93157.91;;;10.65
76895;BMP280;65855;42.030;13.078;2023-04-24T05:33:24;93171.03;;;10.54
76895;BMP280;65855;42.030;13.078;2023-04-24T05:35:50;93173.63;;;10.62
76895;BMP280;65855;42.030;13.078;2023-04-24T05:38:15;93175.16;;;10.50
76895;BMP280;65855;42.030;13.078;2023-04-24T05:40:44;93175.13;;;10.29
76895;BMP280;65855;42.030;13.078;2023-04-24T05:43:10;93184.00;;;9.65
76895;BMP280;65855;42.030;13.078;2023-04-24T05:45:35;93203.78;;;9.13
76895;BMP280;65855;42.030;13.078;2023-04-24T05:48:02;93191.78;;;9.37
76895;BMP280;65855;42.030;13.078;2023-04-24T05:50:27;93191.72;;;9.55
76895;BMP280;65855;42.030;13.078;2023-04-24T05:52:53;93206.06;;;9.41
76895;BMP280;65855;42.030;13.078;2023-04-24T05:55:18;93202.72;;;9.33
76895;BMP280;65855;42.030;13.078;2023-04-24T05:57:44;93187.88;;;9.58
76895;BMP280;65855;42.030;13.078;2023-04-24T06:00:10;93190.22;;;9.81
76895;BMP280;65855;42.030;13.078;2023-04-24T06:02:38;93191.53;;;10.05
76895;BMP280;65855;42.030;13.078;2023-04-24T06:05:03;93182.66;;;10.63
76895;BMP280;65855;42.030;13.078;2023-04-24T06:07:30;93181.06;;;10.89
76895;BMP280;65855;42.030;13.078;2023-04-24T06:09:56;93172.47;;;10.90
76895;BMP280;65855;42.030;13.078;2023-04-24T06:12:22;93162.38;;;11.50
76895;BMP280;65855;42.030;13.078;2023-04-24T06:14:47;93144.81;;;11.91
76895;BMP280;65855;42.030;13.078;2023-04-24T06:17:13;93147.09;;;12.09
76895;BMP280;65855;42.030;13.078;2023-04-24T06:19:38;93136.53;;;12.32
76895;BMP280;65855;42.030;13.078;2023-04-24T06:22:04;93126.56;;;12.36
76895;BMP280;65855;42.030;13.078;2023-04-24T06:24:30;93127.16;;;12.24
76895;BMP280;65855;42.030;13.078;2023-04-24T06:26:55;93127.44;;;12.40
76895;BMP280;65855;42.030;13.078;2023-04-24T06:29:22;93122.69;;;12.63
76895;BMP280;65855;42.030;13.078;2023-04-24T06:31:47;93122.38;;;12.73
76895;BMP280;65855;42.030;13.078;2023-04-24T06:34:13;93134.88;;;12.86
76895;BMP280;65855;42.030;13.078;2023-04-24T06:36:38;93132.81;;;12.80
76895;BMP280;65855;42.030;13.078;2023-04-24T06:39:04;93135.78;;;12.57
76895;BMP280;65855;42.030;13.078;2023-04-24T06:41:29;93134.47;;;12.43
76895;BMP280;65855;42.030;13.078;2023-04-24T06:43:55;93124.94;;;12.40
76895;BMP280;65855;42.030;13.078;2023-04-24T06:46:21;93113.06;;;12.24
76895;BMP280;65855;42.030;13.078;2023-04-24T06:48:52;93126.50;;;11.69
76895;BMP280;65855;42.030;13.078;2023-04-24T06:51:22;93126.50;;;11.61
76895;BMP280;65855;42.030;13.078;2023-04-24T06:53:47;93127.09;;;11.58
76895;BMP280;65855;42.030;13.078;2023-04-24T06:56:12;93118.84;;;11.36
76895;BMP280;65855;42.030;13.078;2023-04-24T06:58:38;93119.63;;;11.53
76895;BMP280;65855;42.030;13.078;2023-04-24T07:01:03;93118.38;;;11.97
76895;BMP280;65855;42.030;13.078;2023-04-24T07:03:29;93119.13;;;12.06
76895;BMP280;65855;42.030;13.078;2023-04-24T07:05:54;93132.56;;;11.60
76895;BMP280;65855;42.030;13.078;2023-04-24T07:08:20;93132.81;;;11.42
76895;BMP280;65855;42.030;13.078;2023-04-24T07:10:47;93137.41;;;12.11
76895;BMP280;65855;42.030;13.078;2023-04-24T07:13:12;93139.94;;;12.20
76895;BMP280;65855;42.030;13.078;2023-04-24T07:15:38;93149.91;;;12.16
76895;BMP280;65855;42.030;13.078;2023-04-24T07:18:04;93155.25;;;12.06
76895;BMP280;65855;42.030;13.078;2023-04-24T07:20:29;93168.31;;;11.92
76895;BMP280;65855;42.030;13.078;2023-04-24T07:22:54;93177.84;;;12.11
76895;BMP280;65855;42.030;13.078;2023-04-24T07:25:20;93189.75;;;12.19
76895;BMP280;65855;42.030;13.078;2023-04-24T07:27:45;93208.63;;;12.22
76895;BMP280;65855;42.030;13.078;2023-04-24T07:40:04;93229.06;;;9.35
76895;BMP280;65855;42.030;13.078;2023-04-24T07:42:29;93209.28;;;9.15
76895;BMP280;65855;42.030;13.078;2023-04-24T07:44:56;93166.34;;;8.36
76895;BMP280;65855;42.030;13.078;2023-04-24T07:47:21;93170.44;;;8.45
76895;BMP280;65855;42.030;13.078;2023-04-24T07:49:47;93193.47;;;9.15
76895;BMP280;65855;42.030;13.078;2023-04-24T07:52:12;93210.66;;;9.92
76895;BMP280;65855;42.030;13.078;2023-04-24T07:54:38;93199.91;;;10.13
76895;BMP280;65855;42.030;13.078;2023-04-24T07:57:03;93174.56;;;9.97
76895;BMP280;65855;42.030;13.078;2023-04-24T07:59:29;93165.59;;;10.39
76895;BMP280;65855;42.030;13.078;2023-04-24T08:01:54;93159.97;;;10.85
76895;BMP280;65855;42.030;13.078;2023-04-24T08:04:20;93171.84;;;11.14
76895;BMP280;65855;42.030;13.078;2023-04-24T08:06:47;93165.06;;;11.23
76895;BMP280;65855;42.030;13.078;2023-04-24T08:09:13;93161.25;;;11.34
76895;BMP280;65855;42.030;13.078;2023-04-24T08:11:38;93156.22;;;11.34
76895;BMP280;65855;42.030;13.078;2023-04-24T08:14:04;93150.66;;;11.53
76895;BMP280;65855;42.030;13.078;2023-04-24T08:16:29;93154.47;;;11.89
76895;BMP280;65855;42.030;13.078;2023-04-24T08:18:55;93150.03;;;12.53
76895;BMP280;65855;42.030;13.078;2023-04-24T08:21:20;93148.41;;;12.65
76895;BMP280;65855;42.030;13.078;2023-04-24T08:23:46;93150.78;;;12.20
76895;BMP280;65855;42.030;13.078;2023-04-24T08:26:12;93150.94;;;12.82
76895;BMP280;65855;42.030;13.078;2023-04-24T08:28:38;93158.41;;;14.05
76895;BMP280;65855;42.030;13.078;2023-04-24T08:31:04;93160.81;;;14.62
76895;BMP280;65855;42.030;13.078;2023-04-24T08:33:29;93158.25;;;15.02
76895;BMP280;65855;42.030;13.078;2023-04-24T08:36:04;93163.34;;;16.67
76895;BMP280;65855;42.030;13.078;2023-04-24T08:38:30;93161.38;;;17.90
76895;BMP280;65855;42.030;13.078;2023-04-24T08:40:57;93146.34;;;18.34
76895;BMP280;65855;42.030;13.078;2023-04-24T08:43:25;93145.09;;;17.34
76895;BMP280;65855;42.030;13.078;2023-04-24T08:45:51;93144.69;;;16.51
76895;BMP280;65855;42.030;13.078;2023-04-24T08:48:17;93155.81;;;15.61
76895;BMP280;65855;42.030;13.078;2023-04-24T08:50:44;93148.81;;;14.51
76895;BMP280;65855;42.030;13.078;2023-04-24T08:53:10;93154.81;;;14.06
76895;BMP280;65855;42.030;13.078;2023-04-24T08:55:35;93162.72;;;13.68
76895;BMP280;65855;42.030;13.078;2023-04-24T08:58:02;93170.16;;;13.73
76895;BMP280;65855;42.030;13.078;2023-04-24T09:00:28;93175.34;;;13.48
76895;BMP280;65855;42.030;13.078;2023-04-24T09:02:55;93177.22;;;13.14
76895;BMP280;65855;42.030;13.078;2023-04-24T09:05:22;93176.94;;;13.07
76895;BMP280;65855;42.030;13.078;2023-04-24T09:07:55;93187.16;;;13.36
76895;BMP280;65855;42.030;13.078;2023-04-24T09:10:23;93179.50;;;13.52
76895;BMP280;65855;42.030;13.078;2023-04-24T09:12:50;93173.69;;;13.07
76895;BMP280;65855;42.030;13.078;2023-04-24T09:15:16;93175.66;;;12.35
76895;BMP280;65855;42.030;13.078;2023-04-24T09:17:41;93174.25;;;11.96
76895;BMP280;65855;42.030;13.078;2023-04-24T09:20:07;93174.09;;;12.00
76895;BMP280;65855;42.030;13.078;2023-04-24T09:22:33;93178.84;;;13.27
76895;BMP280;65855;42.030;13.078;2023-04-24T09:25:07;93167.91;;;15.76
76895;BMP280;65855;42.030;13.078;2023-04-24T09:27:33;93144.13;;;15.25
76895;BMP280;65855;42.030;13.078;2023-04-24T09:30:00;93138.91;;;13.97
76895;BMP280;65855;42.030;13.078;2023-04-24T09:32:26;93147.72;;;13.18
76895;BMP280;65855;42.030;13.078;2023-04-24T09:35:12;93145.06;;;13.15
76895;BMP280;65855;42.030;13.078;2023-04-24T09:37:41;93158.81;;;12.64
76895;BMP280;65855;42.030;13.078;2023-04-24T09:40:18;93147.38;;;12.33
76895;BMP280;65855;42.030;13.078;2023-04-24T09:42:55;93147.81;;;12.10
76895;BMP280;65855;42.030;13.078;2023-04-24T09:45:22;93151.53;;;12.21
76895;BMP280;65855;42.030;13.078;2023-04-24T09:47:52;93179.38;;;12.29
76895;BMP280;65855;42.030;13.078;2023-04-24T09:50:21;93175.03;;;12.21
76895;BMP280;65855;42.030;13.078;2023-04-24T09:52:57;93166.56;;;12.34
76895;BMP280;65855;42.030;13.078;2023-04-24T09:55:23;93161.66;;;12.87
76895;BMP280;65855;42.030;13.078;2023-04-24T09:57:49;93162.75;;;13.23
76895;BMP280;65855;42.030;13.078;2023-04-24T10:00:22;93154.16;;;13.16
76895;BMP280;65855;42.030;13.078;2023-04-24T10:03:14;93148.38;;;13.44
76895;BMP280;65855;42.030;13.078;2023-04-24T10:05:40;93165.94;;;15.26
76895;BMP280;65855;42.030;13.078;2023-04-24T10:08:08;93166.41;;;15.86
76895;BMP280;65855;42.030;13.078;2023-04-24T10:10:35;93169.53;;;14.73
76895;BMP280;65855;42.030;13.078;2023-04-24T10:13:04;93153.47;;;14.09
76895;BMP280;65855;42.030;13.078;2023-04-24T10:15:30;93152.97;;;14.15
76895;BMP280;65855;42.030;13.078;2023-04-24T10:17:57;93145.53;;;15.02
76895;BMP280;65855;42.030;13.078;2023-04-24T10:20:25;93141.84;;;14.48
76895;BMP280;65855;42.030;13.078;2023-04-24T10:22:53;93140.34;;;15.31
76895;BMP280;65855;42.030;13.078;2023-04-24T10:25:24;93151.31;;;15.35
76895;BMP280;65855;42.030;13.078;2023-04-24T10:27:51;93145.06;;;14.37
76895;BMP280;65855;42.030;13.078;2023-04-24T10:30:18;93125.09;;;15.54
76895;BMP280;65855;42.030;13.078;2023-04-24T10:32:44;93130.19;;;14.67
76895;BMP280;65855;42.030;13.078;2023-04-24T10:35:12;93145.16;;;14.00
76895;BMP280;65855;42.030;13.078;2023-04-24T10:38:09;93137.94;;;14.50
76895;BMP280;65855;42.030;13.078;2023-04-24T10:40:36;93130.81;;;14.04
76895;BMP280;65855;42.030;13.078;2023-04-24T10:43:03;93142.19;;;13.98
76895;BMP280;65855;42.030;13.078;2023-04-24T10:45:31;93144.06;;;14.09
76895;BMP280;65855;42.030;13.078;2023-04-24T10:47:58;93160.44;;;13.46
76895;BMP280;65855;42.030;13.078;2023-04-24T10:50:26;93159.72;;;12.93
76895;BMP280;65855;42.030;13.078;2023-04-24T10:52:52;93154.19;;;12.66
76895;BMP280;65855;42.030;13.078;2023-04-24T10:55:45;93167.53;;;13.16
76895;BMP280;65855;42.030;13.078;2023-04-24T10:58:12;93158.78;;;13.59
76895;BMP280;65855;42.030;13.078;2023-04-24T11:00:39;93162.31;;;13.21
76895;BMP280;65855;42.030;13.078;2023-04-24T11:03:23;93154.16;;;13.16
76895;BMP280;65855;42.030;13.078;2023-04-24T11:08:27;93152.28;;;13.41
76895;BMP280;65855;42.030;13.078;2023-04-24T11:11:09;93144.00;;;13.89
76895;BMP280;65855;42.030;13.078;2023-04-24T11:16:44;93146.19;;;15.11
76895;BMP280;65855;42.030;13.078;2023-04-24T11:24:32;93124.66;;;13.85
76895;BMP280;65855;42.030;13.078;2023-04-24T11:27:19;93129.97;;;13.63
76895;BMP280;65855;42.030;13.078;2023-04-24T11:35:13;93143.31;;;13.07
76895;BMP280;65855;42.030;13.078;2023-04-24T11:37:40;93135.69;;;14.69
76895;BMP280;65855;42.030;13.078;2023-04-24T11:40:11;93107.16;;;13.71
76895;BMP280;65855;42.030;13.078;2023-04-24T11:42:43;93117.34;;;14.32
76895;BMP280;65855;42.030;13.078;2023-04-24T11:45:10;93119.06;;;13.99
76895;BMP280;65855;42.030;13.078;2023-04-24T11:47:36;93115.34;;;13.68
76895;BMP280;65855;42.030;13.078;2023-04-24T11:50:02;93128.06;;;14.69
76895;BMP280;65855;42.030;13.078;2023-04-24T11:52:29;93110.72;;;14.19
76895;BMP280;65855;42.030;13.078;2023-04-24T11:54:55;93121.34;;;14.53
76895;BMP280;65855;42.030;13.078;2023-04-24T11:57:22;93116.34;;;13.76
76895;BMP280;65855;42.030;13.078;2023-04-24T11:59:49;93125.72;;;13.84
76895;BMP280;65855;42.030;13.078;2023-04-24T12:02:24;93114.56;;;13.76
76895;BMP280;65855;42.030;13.078;2023-04-24T12:04:51;93106.91;;;13.65
76895;BMP280;65855;42.030;13.078;2023-04-24T12:07:17;93104.63;;;13.63
76895;BMP280;65855;42.030;13.078;2023-04-24T12:12:15;93097.63;;;13.89
76895;BMP280;65855;42.030;13.078;2023-04-24T12:14:48;93109.09;;;13.94
76895;BMP280;65855;42.030;13.078;2023-04-24T12:17:23;93108.63;;;13.72
76895;BMP280;65855;42.030;13.078;2023-04-24T12:19:49;93089.31;;;14.08
76895;BMP280;65855;42.030;13.078;2023-04-24T12:22:16;93099.28;;;14.13
76895;BMP280;65855;42.030;13.078;2023-04-24T12:25:02;93092.38;;;15.53
76895;BMP280;65855;42.030;13.078;2023-04-24T12:27:30;93083.00;;;16.15
76895;BMP280;65855;42.030;13.078;2023-04-24T12:29:58;93093.09;;;15.06
76895;BMP280;65855;42.030;13.078;2023-04-24T12:32:24;93092.66;;;17.18
76895;BMP280;65855;42.030;13.078;2023-04-24T12:34:54;93108.03;;;17.36
76895;BMP280;65855;42.030;13.078;2023-04-24T12:37:20;93098.16;;;16.00
76895;BMP280;65855;42.030;13.078;2023-04-24T12:42:31;93085.81;;;15.16
76895;BMP280;65855;42.030;13.078;2023-04-24T12:44:58;93091.13;;;14.91
76895;BMP280;65855;42.030;13.078;2023-04-24T12:47:25;93079.38;;;16.55
76895;BMP280;65855;42.030;13.078;2023-04-24T12:49:50;93080.41;;;17.08
76895;BMP280;65855;42.030;13.078;2023-04-24T12:52:24;93079.00;;;16.14
76895;BMP280;65855;42.030;13.078;2023-04-24T12:54:52;93077.88;;;15.53
76895;BMP280;65855;42.030;13.078;2023-04-24T12:57:18;93074.31;;;16.05
76895;BMP280;65855;42.030;13.078;2023-04-24T12:59:44;93079.06;;;14.89
76895;BMP280;65855;42.030;13.078;2023-04-24T13:02:10;93076.13;;;14.87
76895;BMP280;65855;42.030;13.078;2023-04-24T13:04:36;93083.81;;;15.57
76895;BMP280;65855;42.030;13.078;2023-04-24T13:07:01;93080.34;;;19.80
76895;BMP280;65855;42.030;13.078;2023-04-24T13:09:27;93058.56;;;19.90
76895;BMP280;65855;42.030;13.078;2023-04-24T13:11:53;93052.31;;;17.20
76895;BMP280;65855;42.030;13.078;2023-04-24T13:14:18;93063.41;;;16.04
76895;BMP280;65855;42.030;13.078;2023-04-24T13:16:44;93069.56;;;16.69
76895;BMP280;65855;42.030;13.078;2023-04-24T13:19:10;93056.63;;;17.65
76895;BMP280;65855;42.030;13.078;2023-04-24T13:21:35;93061.72;;;16.47
76895;BMP280;65855;42.030;13.078;2023-04-24T13:24:00;93059.66;;;15.16
76895;BMP280;65855;42.030;13.078;2023-04-24T13:26:26;93066.00;;;14.98
76895;BMP280;65855;42.030;13.078;2023-04-24T13:28:51;93048.16;;;16.04
76895;BMP280;65855;42.030;13.078;2023-04-24T13:31:17;93049.06;;;15.85
76895;BMP280;65855;42.030;13.078;2023-04-24T13:33:42;93054.31;;;15.91
76895;BMP280;65855;42.030;13.078;2023-04-24T13:36:08;93049.81;;;17.87
76895;BMP280;65855;42.030;13.078;2023-04-24T13:38:34;93055.41;;;17.29
76895;BMP280;65855;42.030;13.078;2023-04-24T13:40:59;93058.34;;;16.85
76895;BMP280;65855;42.030;13.078;2023-04-24T13:43:25;93061.13;;;16.80
76895;BMP280;65855;42.030;13.078;2023-04-24T13:45:51;93051.91;;;17.18
76895;BMP280;65855;42.030;13.078;2023-04-24T13:48:16;93055.72;;;18.25
76895;BMP280;65855;42.030;13.078;2023-04-24T13:50:42;93048.41;;;18.24
76895;BMP280;65855;42.030;13.078;2023-04-24T13:53:08;93031.25;;;17.23
76895;BMP280;65855;42.030;13.078;2023-04-24T13:55:33;93034.03;;;15.68
76895;BMP280;65855;42.030;13.078;2023-04-24T13:57:59;93052.03;;;14.92
76895;BMP280;65855;42.030;13.078;2023-04-24T14:00:25;93049.19;;;15.41
76895;BMP280;65855;42.030;13.078;2023-04-24T14:02:50;93047.84;;;15.94
76895;BMP280;65855;42.030;13.078;2023-04-24T14:05:16;93039.88;;;16.19
76895;BMP280;65855;42.030;13.078;2023-04-24T14:07:42;93040.47;;;16.28
76895;BMP280;65855;42.030;13.078;2023-04-24T14:10:07;93052.81;;;16.68
76895;BMP280;65855;42.030;13.078;2023-04-24T14:12:33;93039.31;;;17.09
76895;BMP280;65855;42.030;13.078;2023-04-24T14:14:59;93029.91;;;16.14
76895;BMP280;65855;42.030;13.078;2023-04-24T14:17:24;93030.38;;;17.64
76895;BMP280;65855;42.030;13.078;2023-04-24T14:19:50;93028.81;;;17.75
76895;BMP280;65855;42.030;13.078;2023-04-24T14:22:17;93014.97;;;16.39
76895;BMP280;65855;42.030;13.078;2023-04-24T14:24:43;93022.94;;;19.05
76895;BMP280;65855;42.030;13.078;2023-04-24T14:27:08;92999.63;;;19.83
76895;BMP280;65855;42.030;13.078;2023-04-24T14:29:34;93008.53;;;19.67
76895;BMP280;65855;42.030;13.078;2023-04-24T14:31:59;93034.78;;;18.35
76895;BMP280;65855;42.030;13.078;2023-04-24T14:34:24;93012.56;;;19.68